Terminal Aerodrome Forecast
Issued by NWS

Home | Current Version | Previous Version | Text Only | Print | Product List | Glossary On
Versions: 1 2 3 4 5 6 7 8 9 10 11 12 13 14
000
FTUS46 KSEW 280500
TAFCLM
TAF
KCLM 280524Z 2806/2906 29008KT P6SM SCT250
     FM281100 29008KT P6SM OVC011
     FM281700 29008KT P6SM SCT015 OVC022
     FM281900 29008KT P6SM SCT050=

USA.gov is the U.S. government's official web portal to all federal, state and local government web resources and services.